createdAt,value
2023-04-01T00:01:50.606Z,94105.13
2023-04-01T00:04:17.798Z,94091.06
2023-04-01T00:06:44.834Z,94108.13
2023-04-01T00:09:11.712Z,94113.50
2023-04-01T00:11:39.531Z,94109.22
2023-04-01T00:14:07.569Z,94117.78
2023-04-01T00:16:34.842Z,94106.03
2023-04-01T00:19:02.030Z,94117.53
2023-04-01T00:21:29.199Z,94114.91
2023-04-01T00:23:57.012Z,94114.91
2023-04-01T00:26:25.633Z,94113.59
2023-04-01T00:28:52.676Z,94120.00
2023-04-01T00:31:20.085Z,94103.47
2023-04-01T00:33:47.640Z,94106.63
2023-04-01T00:36:17.380Z,94101.88
2023-04-01T00:38:45.058Z,94104.53
2023-04-01T00:41:15.826Z,94092.50
2023-04-01T00:43:45.664Z,94076.75
2023-04-01T00:46:13.228Z,94072.19
2023-04-01T00:48:45.661Z,94062.63
2023-04-01T00:51:18.615Z,94034.88
2023-04-01T00:53:50.964Z,94064.47
2023-04-01T00:56:28.998Z,94070.06
2023-04-01T00:59:01.444Z,94064.72
2023-04-01T01:01:31.681Z,94046.03
2023-04-01T01:03:58.932Z,94038.06
2023-04-01T01:06:44.480Z,94053.00
2023-04-01T01:09:22.445Z,94035.66
2023-04-01T01:11:56.853Z,94044.72
2023-04-01T01:14:42.610Z,94040.50
2023-04-01T01:17:31.601Z,94035.69
2023-04-01T01:20:26.450Z,94018.63
2023-04-01T01:23:09.122Z,94026.63
2023-04-01T01:25:46.235Z,94023.44
2023-04-01T01:28:24.916Z,94018.91
2023-04-01T01:31:38.377Z,93963.97
2023-04-01T01:35:04.254Z,94014.59
2023-04-01T01:37:32.338Z,94005.28
2023-04-01T01:40:36.806Z,93943.94
2023-04-01T01:43:46.218Z,94005.00
2023-04-01T01:47:05.106Z,93960.50
2023-04-01T01:50:08.453Z,93999.41
2023-04-01T01:52:37.739Z,94010.63
2023-04-01T01:55:26.390Z,93992.22
2023-04-01T01:57:53.946Z,93963.19
2023-04-01T02:00:21.382Z,93993.81
2023-04-01T02:02:49.818Z,93964.72
2023-04-01T02:05:22.344Z,93983.16
2023-04-01T02:08:15.107Z,93981.28
2023-04-01T02:10:45.782Z,93979.38
2023-04-01T02:13:28.972Z,93970.31
2023-04-01T02:15:59.925Z,93982.31
2023-04-01T02:18:27.098Z,93979.09
2023-04-01T02:20:54.357Z,93975.88
2023-04-01T02:23:21.509Z,93967.59
2023-04-01T02:25:50.236Z,93971.06
2023-04-01T02:28:21.587Z,93963.88
2023-04-01T02:30:51.171Z,93952.66
2023-04-01T02:33:20.064Z,93984.91
2023-04-01T02:35:50.495Z,93974.53
2023-04-01T02:38:17.442Z,93981.19
2023-04-01T02:40:50.829Z,93968.63
2023-04-01T02:43:18.689Z,93946.03
2023-04-01T02:45:45.849Z,93983.34
2023-04-01T02:48:14.450Z,93985.22
2023-04-01T02:50:41.740Z,93976.09
2023-04-01T02:53:09.396Z,93972.69
2023-04-01T02:55:36.517Z,93982.81
2023-04-01T02:58:03.959Z,93993.19
2023-04-01T03:00:31.678Z,94008.94
2023-04-01T03:02:58.983Z,94007.31
2023-04-01T03:05:26.814Z,93995.06
2023-04-01T03:07:53.720Z,94010.81
2023-04-01T03:10:21.385Z,94018.28
2023-04-01T03:12:48.386Z,94008.66
2023-04-01T03:15:15.790Z,94021.19
2023-04-01T03:17:43.806Z,93996.38
2023-04-01T03:20:12.771Z,94018.25
2023-04-01T03:22:42.646Z,94017.97
2023-04-01T03:25:11.132Z,94022.78
2023-04-01T03:27:40.561Z,94030.25
2023-04-01T03:30:10.556Z,94036.66
2023-04-01T03:32:46.642Z,94030.25
2023-04-01T03:35:13.774Z,94026.00
2023-04-01T03:37:41.196Z,94028.94
2023-04-01T03:40:08.887Z,94015.31
2023-04-01T03:42:36.381Z,94010.22
2023-04-01T03:45:04.969Z,93993.38
2023-04-01T03:47:32.108Z,93992.06
2023-04-01T03:50:02.366Z,93965.38
2023-04-01T03:52:32.986Z,93946.44
2023-04-01T03:55:00.439Z,93942.94
2023-04-01T03:57:28.033Z,93929.06
2023-04-01T03:59:59.671Z,93923.97
2023-04-01T04:02:27.791Z,93917.84
2023-04-01T04:04:55.085Z,93872.84
2023-04-01T04:07:22.704Z,93912.78
2023-04-01T04:10:00.998Z,93911.44
2023-04-01T04:12:28.217Z,93890.09
2023-04-01T04:14:55.257Z,93893.03
2023-04-01T04:17:22.457Z,93885.59
2023-04-01T04:19:49.589Z,93900.31
2023-04-01T04:22:17.562Z,93892.88
2023-04-01T04:24:44.634Z,93883.78
2023-04-01T04:27:14.058Z,93881.91
2023-04-01T04:29:56.080Z,93864.84
2023-04-01T04:32:23.324Z,93836.38
2023-04-01T04:34:50.477Z,93870.19
2023-04-01T04:37:19.168Z,93864.84
2023-04-01T04:39:46.147Z,93865.91
2023-04-01T04:42:13.258Z,93864.31
2023-04-01T04:44:41.052Z,93865.59
2023-04-01T04:47:08.174Z,93859.25
2023-04-01T04:49:35.567Z,93856.78
2023-04-01T04:52:07.112Z,93867.31
2023-04-01T04:54:34.360Z,93843.63
2023-04-01T04:57:03.799Z,93836.41
2023-04-01T04:59:35.754Z,93842.81
2023-04-01T05:02:11.099Z,93839.66
2023-04-01T05:04:38.376Z,93851.38
2023-04-01T05:07:09.232Z,93831.13
2023-04-01T05:09:36.661Z,93815.94
2023-04-01T05:12:04.616Z,93828.47
2023-04-01T05:14:51.722Z,93830.31
2023-04-01T05:17:18.918Z,93803.72
2023-04-01T05:19:46.033Z,93787.19
2023-04-01T05:22:13.132Z,93803.59
2023-04-01T05:24:41.430Z,93795.06
2023-04-01T05:27:08.555Z,93757.28
2023-04-01T05:29:39.320Z,93794.47
2023-04-01T05:32:11.347Z,93784.59
2023-04-01T05:34:38.737Z,93785.41
2023-04-01T05:37:06.100Z,93788.31
2023-04-01T05:39:37.018Z,93806.34
2023-04-01T05:42:04.397Z,93789.25
2023-04-01T05:44:31.996Z,93790.22
2023-04-01T05:47:08.201Z,93790.59
2023-04-01T05:49:36.550Z,93761.28
2023-04-01T05:52:06.054Z,93795.44
2023-04-01T05:54:36.193Z,93797.28
2023-04-01T05:57:03.644Z,93768.16
2023-04-01T05:59:32.363Z,93793.19
2023-04-01T06:02:00.001Z,93777.94
2023-04-01T06:04:33.951Z,93781.75
2023-04-01T06:07:01.463Z,93794.66
2023-04-01T06:09:31.437Z,93779.00
2023-04-01T06:12:43.821Z,93773.66
2023-04-01T06:15:16.562Z,93782.06
2023-04-01T06:18:14.658Z,93777.31
2023-04-01T06:20:59.886Z,93775.53
2023-04-01T06:24:04.376Z,93773.16
2023-04-01T06:27:06.234Z,93759.88
2023-04-01T06:30:04.653Z,93792.19
2023-04-01T06:32:55.192Z,93784.13
2023-04-01T06:35:28.561Z,93772.81
2023-04-01T06:38:30.851Z,93740.41
2023-04-01T06:41:31.143Z,93754.31
2023-04-01T06:44:02.126Z,93753.91
2023-04-01T06:47:00.784Z,93763.53
2023-04-01T06:50:28.412Z,93742.31
2023-04-01T06:53:22.623Z,93740.16
2023-04-01T06:56:13.887Z,93719.69
2023-04-01T06:59:18.834Z,93735.06
2023-04-01T07:02:11.542Z,93724.34
2023-04-01T07:04:46.133Z,93731.63
2023-04-01T07:07:44.699Z,93737.28
2023-04-01T07:10:29.214Z,93734.00
2023-04-01T07:13:25.335Z,93715.50
2023-04-01T07:16:06.704Z,93727.25
2023-04-01T07:19:04.024Z,93704.88
2023-04-01T07:21:54.191Z,93713.91
2023-04-01T07:24:37.720Z,93725.75
2023-04-01T07:27:15.122Z,93709.53
2023-04-01T07:29:44.311Z,93729.63
2023-04-01T07:32:25.351Z,93735.34
2023-04-01T07:34:55.284Z,93722.78
2023-04-01T07:37:48.805Z,93750.13
2023-04-01T07:40:46.934Z,93744.47
2023-04-01T07:43:49.406Z,93714.41
2023-04-01T07:46:27.574Z,93715.81
2023-04-01T07:49:01.683Z,93720.38
2023-04-01T07:51:59.817Z,93712.81
2023-04-01T07:54:48.183Z,93713.84
2023-04-01T07:57:20.345Z,93711.53
2023-04-01T08:00:07.656Z,93714.16
2023-04-01T08:03:29.133Z,93704.25
2023-04-01T08:06:00.935Z,93698.09
2023-04-01T08:08:51.952Z,93709.13
2023-04-01T08:12:02.062Z,93696.25
2023-04-01T08:14:57.116Z,93673.22
2023-04-01T08:18:30.805Z,93680.88
2023-04-01T08:21:12.811Z,93677.69
2023-04-01T08:23:46.215Z,93668.47
2023-04-01T08:26:46.213Z,93660.34
2023-04-01T08:29:19.466Z,93657.31
2023-04-01T08:32:10.085Z,93658.09
2023-04-01T08:34:40.061Z,93646.53
2023-04-01T08:37:27.153Z,93627.47
2023-04-01T08:40:11.809Z,93607.13
2023-04-01T08:43:07.991Z,93592.69
2023-04-01T08:46:01.041Z,93608.22
2023-04-01T08:48:43.276Z,93600.16
2023-04-01T08:51:27.967Z,93601.63
2023-04-01T08:54:27.001Z,93594.63
2023-04-01T08:57:42.461Z,93589.84
2023-04-01T09:00:53.222Z,93601.25
2023-04-01T09:04:32.232Z,93606.31
2023-04-01T09:07:43.486Z,93604.19
2023-04-01T09:10:26.862Z,93597.16
2023-04-01T09:13:09.390Z,93609.91
2023-04-01T09:16:15.915Z,93603.25
2023-04-01T09:19:00.714Z,93549.06
2023-04-01T09:22:00.353Z,93592.50
2023-04-01T09:25:07.224Z,93597.16
2023-04-01T09:27:55.063Z,93585.03
2023-04-01T09:30:36.170Z,93574.31
2023-04-01T09:33:28.011Z,93571.63
2023-04-01T09:35:58.381Z,93568.81
2023-04-01T09:39:13.151Z,93562.38
2023-04-01T09:42:09.195Z,93557.69
2023-04-01T09:44:58.623Z,93555.34
2023-04-01T09:47:37.002Z,93546.28
2023-04-01T09:50:07.228Z,93538.31
2023-04-01T09:52:46.786Z,93536.06
2023-04-01T09:55:46.811Z,93530.09
2023-04-01T09:58:43.590Z,93519.97
2023-04-01T10:01:51.131Z,93517.06
2023-04-01T10:05:13.204Z,93509.44
2023-04-01T10:08:17.871Z,93514.50
2023-04-01T10:10:51.122Z,93521.03
2023-04-01T10:13:47.798Z,93505.50
2023-04-01T10:16:35.308Z,93500.09
2023-04-01T10:19:41.201Z,93491.22
2023-04-01T10:23:03.143Z,93496.97
2023-04-01T10:25:43.895Z,93491.00
2023-04-01T10:28:36.611Z,93486.69
2023-04-01T10:31:45.695Z,93490.19
2023-04-01T10:34:21.803Z,93497.75
2023-04-01T10:36:57.036Z,93493.88
2023-04-01T10:39:53.295Z,93486.97
2023-04-01T10:42:55.766Z,93474.72
2023-04-01T10:45:58.884Z,93479.34
2023-04-01T10:48:45.575Z,93474.28
2023-04-01T10:51:34.435Z,93463.09
2023-04-01T10:54:40.824Z,93467.19
2023-04-01T10:57:38.899Z,93457.91
2023-04-01T11:00:50.619Z,93434.38
2023-04-01T11:03:59.793Z,93438.97
2023-04-01T11:07:08.096Z,93437.41
2023-04-01T11:09:50.678Z,93427.91
2023-04-01T11:12:32.923Z,93444.91
2023-04-01T11:15:22.079Z,93442.06
2023-04-01T11:18:24.488Z,93434.09
2023-04-01T11:21:05.070Z,93435.53
2023-04-01T11:23:44.039Z,93430.78
2023-04-01T11:26:15.942Z,93450.47
2023-04-01T11:29:11.134Z,93477.72
2023-04-01T11:31:48.458Z,93484.44
2023-04-01T11:34:49.968Z,93525.84
2023-04-01T11:37:26.164Z,93511.44
2023-04-01T11:40:48.989Z,93494.53
2023-04-01T11:43:48.878Z,93576.00
2023-04-01T11:46:47.905Z,93617.69
2023-04-01T11:49:37.899Z,93637.38
2023-04-01T11:52:28.024Z,93685.94
2023-04-01T11:55:07.331Z,93702.50
2023-04-01T11:57:49.679Z,93711.81
2023-04-01T12:00:47.776Z,93700.50
2023-04-01T12:03:53.120Z,93722.31
2023-04-01T12:06:29.375Z,93716.88
2023-04-01T12:09:10.340Z,93690.84
2023-04-01T12:12:00.268Z,93686.06
2023-04-01T12:14:27.631Z,93688.47
2023-04-01T12:17:22.513Z,93685.50
2023-04-01T12:20:27.899Z,93660.75
2023-04-01T12:22:54.674Z,93684.22
2023-04-01T12:25:47.905Z,93681.94
2023-04-01T12:28:17.854Z,93681.53
2023-04-01T12:31:06.195Z,93695.47
2023-04-01T12:34:01.394Z,93692.59
2023-04-01T12:36:42.097Z,93674.44
2023-04-01T12:39:40.715Z,93703.31
2023-04-01T12:42:32.103Z,93707.19
2023-04-01T12:45:33.236Z,93701.94
2023-04-01T12:48:18.942Z,93694.28
2023-04-01T12:51:23.672Z,93690.44
2023-04-01T12:54:28.198Z,93696.84
2023-04-01T12:56:55.426Z,93684.16
2023-04-01T12:59:37.766Z,93676.56
2023-04-01T13:02:23.150Z,93668.16
2023-04-01T13:05:17.128Z,93635.16
2023-04-01T13:08:13.817Z,93632.94
2023-04-01T13:10:59.332Z,93648.88
2023-04-01T13:13:40.032Z,93593.53
2023-04-01T13:16:18.444Z,93605.66
2023-04-01T13:19:09.157Z,93586.50
2023-04-01T13:21:36.153Z,93615.09
2023-04-01T13:24:23.770Z,93612.50
2023-04-01T13:27:21.533Z,93603.09
2023-04-01T13:29:57.507Z,93599.97
2023-04-01T13:32:49.372Z,93589.63
2023-04-01T13:35:37.573Z,93575.63
2023-04-01T13:38:21.644Z,93571.44
2023-04-01T13:41:16.454Z,93576.06
2023-04-01T13:43:49.343Z,93547.25
2023-04-01T13:46:53.055Z,93552.16
2023-04-01T13:49:33.045Z,93550.09
2023-04-01T13:52:12.456Z,93558.81
2023-04-01T13:54:58.466Z,93554.91
2023-04-01T13:57:38.683Z,93544.16
2023-04-01T14:00:34.151Z,93538.16
2023-04-01T14:03:30.040Z,93535.97
2023-04-01T14:06:03.536Z,93532.47
2023-04-01T14:08:45.323Z,93512.19
2023-04-01T14:11:18.521Z,93513.91
2023-04-01T14:13:51.696Z,93527.31
2023-04-01T14:16:40.817Z,93533.31
2023-04-01T14:19:34.374Z,93525.59
2023-04-01T14:22:29.038Z,93513.50
2023-04-01T14:25:23.854Z,93504.16
2023-04-01T14:27:56.172Z,93493.38
2023-04-01T14:30:57.500Z,93488.41
2023-04-01T14:33:40.832Z,93487.81
2023-04-01T14:36:19.864Z,93489.09
2023-04-01T14:39:10.381Z,93491.00
2023-04-01T14:42:06.140Z,93488.31
2023-04-01T14:44:42.254Z,93497.66
2023-04-01T14:47:18.289Z,93488.84
2023-04-01T14:50:10.576Z,93481.75
2023-04-01T14:52:41.422Z,93480.66
2023-04-01T14:55:44.171Z,93487.53
2023-04-01T14:58:18.284Z,93481.72
2023-04-01T15:00:55.143Z,93484.13
2023-04-01T15:04:12.026Z,93491.69
2023-04-01T15:07:13.823Z,93504.56
2023-04-01T15:10:05.829Z,93501.75
2023-04-01T15:12:34.590Z,93511.44
2023-04-01T15:15:41.108Z,93503.50
2023-04-01T15:18:45.425Z,93505.84
2023-04-01T15:21:22.743Z,93515.56
2023-04-01T15:24:07.962Z,93512.63
2023-04-01T15:26:41.125Z,93518.56
2023-04-01T15:29:58.899Z,93519.94
2023-04-01T15:32:25.912Z,93511.03
2023-04-01T15:35:21.902Z,93516.97
2023-04-01T15:38:10.190Z,93510.44
2023-04-01T15:41:09.160Z,93516.25
2023-04-01T15:43:54.865Z,93515.53
2023-04-01T15:46:51.264Z,93527.19
2023-04-01T15:49:45.034Z,93649.94
2023-04-01T15:52:45.154Z,93744.25
2023-04-01T15:55:38.261Z,93728.63
2023-04-01T15:58:32.772Z,93776.31
2023-04-01T16:01:08.791Z,93768.63
2023-04-01T16:03:57.820Z,93777.09
2023-04-01T16:06:57.424Z,93770.38
2023-04-01T16:09:49.213Z,93785.91
2023-04-01T16:12:27.856Z,93774.25
2023-04-01T16:15:10.473Z,93782.00
2023-04-01T16:18:04.945Z,93791.59
2023-04-01T16:20:57.722Z,93798.50
2023-04-01T16:23:50.269Z,93808.09
2023-04-01T16:26:27.509Z,93803.53
2023-04-01T16:29:00.567Z,93809.94
2023-04-01T16:31:44.076Z,93795.84
2023-04-01T16:34:36.239Z,93801.19
2023-04-01T16:37:21.316Z,93818.75
2023-04-01T16:40:03.784Z,93822.47
2023-04-01T16:42:52.465Z,93829.91
2023-04-01T16:45:38.244Z,93815.81
2023-04-01T16:48:19.490Z,93825.13
2023-04-01T16:51:10.999Z,93832.56
2023-04-01T16:53:49.439Z,93833.88
2023-04-01T16:56:24.911Z,93825.34
2023-04-01T16:59:08.680Z,93843.44
2023-04-01T17:01:58.646Z,93834.38
2023-04-01T17:04:31.884Z,93829.84
2023-04-01T17:07:21.530Z,93818.59
2023-04-01T17:10:06.921Z,93844.72
2023-04-01T17:12:33.907Z,93852.22
2023-04-01T17:15:06.921Z,93850.88
2023-04-01T17:17:55.992Z,93872.97
2023-04-01T17:20:43.237Z,93872.97
2023-04-01T17:23:23.342Z,93863.31
2023-04-01T17:26:03.322Z,93851.34
2023-04-01T17:28:43.061Z,93859.28
2023-04-01T17:31:24.908Z,93874.97
2023-04-01T17:34:13.801Z,93868.56
2023-04-01T17:37:18.596Z,93874.41
2023-04-01T17:39:57.799Z,93866.94
2023-04-01T17:42:48.121Z,93846.69
2023-04-01T17:45:23.946Z,93865.84
2023-04-01T17:47:51.541Z,93877.28
2023-04-01T17:50:37.499Z,93863.38
2023-04-01T17:53:23.442Z,93883.41
2023-04-01T17:56:01.440Z,93902.50
2023-04-01T17:58:43.629Z,93908.31
2023-04-01T18:01:21.147Z,93908.31
2023-04-01T18:04:17.698Z,93923.13
2023-04-01T18:07:41.290Z,93934.53
2023-04-01T18:10:47.632Z,93936.88
2023-04-01T18:13:42.671Z,93944.06
2023-04-01T18:16:19.169Z,93943.31
2023-04-01T18:19:15.915Z,93946.78
2023-04-01T18:21:51.398Z,93958.25
2023-04-01T18:24:24.507Z,93955.84
2023-04-01T18:27:02.007Z,93959.88
2023-04-01T18:29:28.934Z,93951.34
2023-04-01T18:32:10.600Z,93947.31
2023-04-01T18:35:10.019Z,93941.75
2023-04-01T18:37:56.975Z,93897.97
2023-04-01T18:40:31.193Z,93947.31
2023-04-01T18:43:24.626Z,93952.72
2023-04-01T18:46:13.053Z,93949.72
2023-04-01T18:48:49.261Z,93943.91
2023-04-01T18:51:22.956Z,93952.22
2023-04-01T18:54:11.174Z,93937.06
2023-04-01T18:56:45.135Z,93951.97
2023-04-01T18:59:28.498Z,93958.84
2023-04-01T19:02:30.512Z,93969.78
2023-04-01T19:05:02.303Z,93974.09
2023-04-01T19:07:44.864Z,93982.63
2023-04-01T19:10:22.946Z,93981.81
2023-04-01T19:13:11.829Z,93988.78
2023-04-01T19:16:01.468Z,93981.34
2023-04-01T19:19:00.584Z,93996.28
2023-04-01T19:21:30.491Z,93978.44
2023-04-01T19:24:47.975Z,93999.53
2023-04-01T19:28:00.719Z,93993.66
2023-04-01T19:30:58.000Z,93996.28
2023-04-01T19:34:18.918Z,93991.47
2023-04-01T19:36:57.876Z,94006.34
2023-04-01T19:39:31.889Z,94012.72
2023-04-01T19:42:13.131Z,94003.66
2023-04-01T19:44:52.274Z,94028.69
2023-04-01T19:47:35.811Z,94021.00
2023-04-01T19:50:36.190Z,94029.28
2023-04-01T19:53:33.441Z,94028.69
2023-04-01T19:56:09.185Z,94024.97
2023-04-01T19:58:55.507Z,94033.50
2023-04-01T20:01:44.855Z,94028.69
2023-04-01T20:04:22.239Z,94027.03
2023-04-01T20:07:07.634Z,94024.84
2023-04-01T20:09:43.553Z,94014.72
2023-04-01T20:12:58.306Z,94018.94
2023-04-01T20:15:34.063Z,94017.88
2023-04-01T20:18:23.198Z,94024.56
2023-04-01T20:21:19.020Z,94021.09
2023-04-01T20:24:07.403Z,94032.59
2023-04-01T20:26:43.595Z,94019.03
2023-04-01T20:29:22.793Z,94042.28
2023-04-01T20:32:06.080Z,94027.81
2023-04-01T20:34:57.837Z,94037.75
2023-04-01T20:37:36.761Z,94040.38
2023-04-01T20:40:23.168Z,94048.84
2023-04-01T20:43:12.057Z,94035.50
2023-04-01T20:45:59.197Z,94052.19
2023-04-01T20:49:04.208Z,94056.16
2023-04-01T20:51:35.963Z,94036.63
2023-04-01T20:54:14.821Z,94045.72
2023-04-01T20:57:06.281Z,94042.00
2023-04-01T21:00:05.925Z,94034.63
2023-04-01T21:02:45.358Z,94042.81
2023-04-01T21:05:30.975Z,94045.72
2023-04-01T21:08:23.170Z,94045.41
2023-04-01T21:11:16.867Z,94058.47
2023-04-01T21:13:59.349Z,94064.31
2023-04-01T21:17:05.287Z,94075.28
2023-04-01T21:19:41.998Z,94066.78
2023-04-01T21:22:27.364Z,94071.97
2023-04-01T21:25:01.535Z,94077.09
2023-04-01T21:27:40.290Z,94064.91
2023-04-01T21:30:44.606Z,94072.69
2023-04-01T21:33:21.983Z,94069.75
2023-04-01T21:36:35.637Z,94069.22
2023-04-01T21:39:26.938Z,94064.91
2023-04-01T21:42:06.218Z,94065.72
2023-04-01T21:45:07.568Z,94064.91
2023-04-01T21:47:34.521Z,94062.22
2023-04-01T21:50:13.819Z,94068.94
2023-04-01T21:53:12.954Z,94069.44
2023-04-01T21:55:39.902Z,94068.13
2023-04-01T21:58:09.649Z,94068.69
2023-04-01T22:00:37.367Z,94072.41
2023-04-01T22:03:27.718Z,94060.66
2023-04-01T22:06:04.598Z,94064.56
2023-04-01T22:08:43.446Z,94078.09
2023-04-01T22:11:33.722Z,94068.19
2023-04-01T22:14:27.407Z,94057.72
2023-04-01T22:16:57.333Z,94064.06
2023-04-01T22:19:36.688Z,94055.72
2023-04-01T22:22:09.094Z,94065.31
2023-04-01T22:25:01.881Z,94055.88
2023-04-01T22:27:43.278Z,94055.59
2023-04-01T22:30:25.603Z,94050.59
2023-04-01T22:33:17.385Z,94067.59
2023-04-01T22:35:56.772Z,94062.84
2023-04-01T22:38:42.214Z,94065.47
2023-04-01T22:41:42.913Z,94062.69
2023-04-01T22:44:42.036Z,94074.38
2023-04-01T22:47:40.232Z,94066.75
2023-04-01T22:50:25.464Z,94073.44
2023-04-01T22:53:08.216Z,94079.25
2023-04-01T22:55:39.358Z,94080.53
2023-04-01T22:58:33.801Z,94090.72
2023-04-01T23:01:07.486Z,94060.50
2023-04-01T23:03:41.392Z,94095.88
2023-04-01T23:06:27.445Z,94097.53
2023-04-01T23:09:27.038Z,94091.75
2023-04-01T23:12:07.534Z,94077.16
2023-04-01T23:14:45.159Z,94085.16
2023-04-01T23:17:26.816Z,94093.69
2023-04-01T23:20:07.772Z,94084.91
2023-04-01T23:23:06.998Z,94089.97
2023-04-01T23:25:55.330Z,94096.09
2023-04-01T23:28:51.825Z,94096.38
2023-04-01T23:31:40.011Z,94097.44
2023-04-01T23:34:06.930Z,94097.13
2023-04-01T23:36:40.168Z,94099.50
2023-04-01T23:39:33.370Z,94101.41
2023-04-01T23:42:05.710Z,94102.97
2023-04-01T23:44:34.900Z,94093.91
2023-04-01T23:47:04.355Z,94100.25
2023-04-01T23:49:37.989Z,94099.94
2023-04-01T23:52:14.133Z,94080.44
2023-04-01T23:54:55.319Z,94108.72
2023-04-01T23:57:28.293Z,94105.81
